Главная страница
METAR-TAF:

METAR-TAF

Аэропорты :

Лагос, Нигерия

Международный аэропорт имени Мурталы Мухаммеда

широта: 06-35N, долгота: 003-20E, высота над уровнем моря: 40 м

Текущие метеонаблюдения

Эта сводка был подготовлена 1 час и 2 минут назад, в 07:00 UTC
Ветер 2 Узел переменных направлений
Температура 25°C
Влажность 94%
Давление 1013 hPa
Видимость: 1000 м
дымка

METAR: DNMM 140700Z VRB02KT 1000 R18R/0800N R36L/0800N BR NSC 25/24 Q1013 NOSIG

Время: 09:02 (08:02 UTC)

Прогноз

Эта сводка был подготовлена 4 часа и 32 минут назад, в 03:30 UTC
Прогноз действительный с 14-го 06 UTC до 15-го 12 UTC
Ветер 2 Узел переменных направлений
Видимость: 1000 м
мгла
временами
С 14-го 07 UTC до 14-го 12 UTC
Видимость: 2000 м

TAF: DNMM 140330Z 1406/1512 VRB02KT 1000 HZ NSC TEMPO 1407/1412 2000

Метеонаблюдения и прогнозы для более 4000 аэропортов (сводки METAR и TAF).

Имеющиеся станции представлены на карте желтыми и красными точками.

Чтобы увидеть название станции, наведите на нее мышь.

Затем щелкните, чтобы увидеть метеонаблюдения и метеопрогнозы.

Управление картой: чтобы увеличить масштаб, щелкните зеленые кнопки с черным крестиком; чтобы уменьшить масштаб, щелкните зеленую кнопку с тире; для просмотра соседних карт щелкайте зеленые стрелки.


METAR-TAF: